createdAt,value
2023-04-23T00:02:22.921Z,42.60
2023-04-23T00:04:52.923Z,41.47
2023-04-23T00:07:23.463Z,43.37
2023-04-23T00:09:57.089Z,43.05
2023-04-23T00:12:24.774Z,40.60
2023-04-23T00:14:52.257Z,43.77
2023-04-23T00:17:20.030Z,43.33
2023-04-23T00:19:47.622Z,41.63
2023-04-23T00:22:17.011Z,43.50
2023-04-23T00:24:44.411Z,42.90
2023-04-23T00:27:11.479Z,45.47
2023-04-23T00:29:38.653Z,42.47
2023-04-23T00:32:05.818Z,42.93
2023-04-23T00:34:33.168Z,39.60
2023-04-23T00:37:00.297Z,39.93
2023-04-23T00:39:27.292Z,38.85
2023-04-23T00:41:54.386Z,39.77
2023-04-23T00:44:22.588Z,39.10
2023-04-23T00:46:50.229Z,42.47
2023-04-23T00:49:19.022Z,37.30
2023-04-23T00:51:46.236Z,38.13
2023-04-23T00:54:14.387Z,36.90
2023-04-23T00:56:41.450Z,39.00
2023-04-23T00:59:08.877Z,41.30
2023-04-23T01:01:36.106Z,41.27
2023-04-23T01:04:03.655Z,36.67
2023-04-23T01:06:31.824Z,40.10
2023-04-23T01:08:59.448Z,39.27
2023-04-23T01:11:26.852Z,37.23
2023-04-23T01:13:53.982Z,40.63
2023-04-23T01:16:21.068Z,38.03
2023-04-23T01:18:48.546Z,38.07
2023-04-23T01:21:16.929Z,36.80
2023-04-23T01:23:44.239Z,40.33
2023-04-23T01:26:11.594Z,38.47
2023-04-23T01:28:39.244Z,44.17
2023-04-23T01:31:06.953Z,35.00
2023-04-23T01:33:34.486Z,40.30
2023-04-23T01:36:02.775Z,38.80
2023-04-23T01:38:33.049Z,35.17
2023-04-23T01:41:00.108Z,39.17
2023-04-23T01:43:28.324Z,40.73
2023-04-23T01:45:55.533Z,36.40
2023-04-23T01:48:22.710Z,32.37
2023-04-23T01:50:51.433Z,38.30
2023-04-23T01:53:18.806Z,34.03
2023-04-23T01:55:48.232Z,34.97
2023-04-23T01:58:15.517Z,37.07
2023-04-23T02:00:42.620Z,33.63
2023-04-23T02:03:09.836Z,34.70
2023-04-23T02:05:38.878Z,33.57
2023-04-23T02:08:06.049Z,33.57
2023-04-23T02:10:33.185Z,35.37
2023-04-23T02:13:01.880Z,32.65
2023-04-23T02:15:29.507Z,32.63
2023-04-23T02:17:56.792Z,33.97
2023-04-23T02:20:23.914Z,32.60
2023-04-23T02:22:51.622Z,29.80
2023-04-23T02:25:21.684Z,34.13
2023-04-23T02:27:49.250Z,32.63
2023-04-23T02:30:16.516Z,31.48
2023-04-23T02:32:44.094Z,31.80
2023-04-23T02:35:11.345Z,35.42
2023-04-23T02:37:38.653Z,32.40
2023-04-23T02:40:06.861Z,30.92
2023-04-23T02:42:34.431Z,30.77
2023-04-23T02:45:01.609Z,34.37
2023-04-23T02:47:28.755Z,30.23
2023-04-23T02:49:55.792Z,31.90
2023-04-23T02:52:22.794Z,31.67
2023-04-23T02:54:49.844Z,33.35
2023-04-23T02:57:17.073Z,29.30
2023-04-23T02:59:44.223Z,30.37
2023-04-23T03:02:11.355Z,28.47
2023-04-23T03:04:38.709Z,32.70
2023-04-23T03:07:05.906Z,31.47
2023-04-23T03:09:33.135Z,29.17
2023-04-23T03:12:00.265Z,28.47
2023-04-23T03:14:27.367Z,36.83
2023-04-23T03:16:54.397Z,31.10
2023-04-23T03:19:21.488Z,27.80
2023-04-23T03:21:48.739Z,30.65
2023-04-23T03:24:16.734Z,28.17
2023-04-23T03:26:43.819Z,28.90
2023-04-23T03:29:11.106Z,30.17
2023-04-23T03:31:38.150Z,29.93
2023-04-23T03:34:05.258Z,32.40
2023-04-23T03:36:32.517Z,29.38
2023-04-23T03:38:59.599Z,28.35
2023-04-23T03:41:26.645Z,29.42
2023-04-23T03:43:53.701Z,29.50
2023-04-23T03:46:20.772Z,30.80
2023-04-23T03:48:47.849Z,29.23
2023-04-23T03:51:15.525Z,32.07
2023-04-23T03:53:42.616Z,28.17
2023-04-23T03:56:09.967Z,31.02
2023-04-23T03:58:37.040Z,27.93
2023-04-23T04:01:04.382Z,27.20
2023-04-23T04:03:31.939Z,27.13
2023-04-23T04:05:59.022Z,25.63
2023-04-23T04:08:27.144Z,29.10
2023-04-23T04:10:54.414Z,27.00
2023-04-23T04:13:21.510Z,25.77
2023-04-23T04:15:48.957Z,26.25
2023-04-23T04:18:16.345Z,25.02
2023-04-23T04:20:44.436Z,26.60
2023-04-23T04:23:11.469Z,26.00
2023-04-23T04:25:40.209Z,24.65
2023-04-23T04:28:09.993Z,25.65
2023-04-23T04:30:38.191Z,24.73
2023-04-23T04:33:05.339Z,22.63
2023-04-23T04:35:32.390Z,23.67
2023-04-23T04:38:00.020Z,22.20
2023-04-23T04:40:28.663Z,22.02
2023-04-23T04:42:55.671Z,23.48
2023-04-23T04:45:24.001Z,20.98
2023-04-23T04:47:51.601Z,20.70
2023-04-23T04:50:18.724Z,21.55
2023-04-23T04:52:46.073Z,22.40
2023-04-23T04:55:13.157Z,22.47
2023-04-23T04:57:40.379Z,20.42
2023-04-23T05:00:29.316Z,20.30
2023-04-23T05:02:58.385Z,22.70
2023-04-23T05:05:27.437Z,24.58
2023-04-23T05:07:55.031Z,22.20
2023-04-23T05:10:22.069Z,23.48
2023-04-23T05:12:49.215Z,22.27
2023-04-23T05:15:16.603Z,18.10
2023-04-23T05:17:44.446Z,21.92
2023-04-23T05:20:12.110Z,20.45
2023-04-23T05:22:41.637Z,21.25
2023-04-23T05:25:11.870Z,18.15
2023-04-23T05:27:39.907Z,20.48
2023-04-23T05:30:11.709Z,18.00
2023-04-23T05:32:39.373Z,20.13
2023-04-23T05:35:07.256Z,17.75
2023-04-23T05:37:34.866Z,17.33
2023-04-23T05:40:02.870Z,18.85
2023-04-23T05:42:29.877Z,16.10
2023-04-23T05:44:56.929Z,18.02
2023-04-23T05:47:23.951Z,17.40
2023-04-23T05:49:50.998Z,13.50
2023-04-23T05:52:19.163Z,14.48
2023-04-23T05:54:46.205Z,16.00
2023-04-23T05:57:13.334Z,14.70
2023-04-23T05:59:40.507Z,17.63
2023-04-23T06:02:10.860Z,15.52
2023-04-23T06:04:38.497Z,16.92
2023-04-23T06:07:06.736Z,15.85
2023-04-23T06:09:33.740Z,15.32
2023-04-23T06:12:01.056Z,13.13
2023-04-23T06:14:28.114Z,14.07
2023-04-23T06:16:55.167Z,13.65
2023-04-23T06:19:24.993Z,12.35
2023-04-23T06:21:52.407Z,14.50
2023-04-23T06:24:19.553Z,13.52
2023-04-23T06:26:46.708Z,13.20
2023-04-23T06:29:13.728Z,11.15
2023-04-23T06:31:41.957Z,12.48
2023-04-23T06:34:09.200Z,11.48
2023-04-23T06:36:36.220Z,9.65
2023-04-23T06:39:03.386Z,10.65
2023-04-23T06:41:30.699Z,11.18
2023-04-23T06:43:57.746Z,8.68
2023-04-23T06:46:24.927Z,10.70
2023-04-23T06:48:51.998Z,9.80
2023-04-23T06:51:19.131Z,9.23
2023-04-23T06:53:47.052Z,11.57
2023-04-23T06:56:14.159Z,8.88
2023-04-23T06:58:41.305Z,10.05
2023-04-23T07:01:08.406Z,8.82
2023-04-23T07:03:36.522Z,10.20
2023-04-23T07:06:04.181Z,10.82
2023-04-23T07:08:31.854Z,8.88
2023-04-23T07:10:59.079Z,10.00
2023-04-23T07:13:26.535Z,8.50
2023-04-23T07:15:53.617Z,9.35
2023-04-23T07:18:20.685Z,7.97
2023-04-23T07:20:47.714Z,8.68
2023-04-23T07:23:14.820Z,8.43
2023-04-23T07:25:42.201Z,12.40
2023-04-23T07:28:09.376Z,7.78
2023-04-23T07:30:36.744Z,10.57
2023-04-23T07:33:04.000Z,13.40
2023-04-23T07:35:31.112Z,8.65
2023-04-23T07:37:58.358Z,8.32
2023-04-23T07:40:25.673Z,5.82
2023-04-23T07:42:53.057Z,5.68
2023-04-23T07:45:20.294Z,7.90
2023-04-23T07:47:50.422Z,6.93
2023-04-23T07:50:17.540Z,6.97
2023-04-23T07:52:44.720Z,6.93
2023-04-23T07:55:11.795Z,8.55
2023-04-23T07:57:39.058Z,4.15
2023-04-23T08:00:09.565Z,6.35
2023-04-23T08:02:36.847Z,6.82
2023-04-23T08:05:04.415Z,7.68
2023-04-23T08:07:31.737Z,4.63
2023-04-23T08:10:03.002Z,5.68
2023-04-23T08:12:31.086Z,6.80
2023-04-23T08:14:58.326Z,6.20
2023-04-23T08:17:25.717Z,5.50
2023-04-23T08:19:52.974Z,5.13
2023-04-23T08:22:20.447Z,4.68
2023-04-23T08:24:48.880Z,8.82
2023-04-23T08:27:16.058Z,5.53
2023-04-23T08:29:43.369Z,9.75
2023-04-23T08:32:10.689Z,5.60
2023-04-23T08:34:37.814Z,8.63
2023-04-23T08:37:05.172Z,8.07
2023-04-23T08:39:34.610Z,7.30
2023-04-23T08:42:14.620Z,6.30
2023-04-23T08:44:45.073Z,5.18
2023-04-23T08:47:14.904Z,7.03
2023-04-23T08:49:44.667Z,6.05
2023-04-23T08:52:23.781Z,7.22
2023-04-23T08:54:54.424Z,5.82
2023-04-23T08:57:22.338Z,2.72
2023-04-23T08:59:49.824Z,5.60
2023-04-23T09:02:18.083Z,6.50
2023-04-23T09:04:50.911Z,5.72
2023-04-23T09:07:19.087Z,4.35
2023-04-23T09:09:47.830Z,5.63
2023-04-23T09:12:15.609Z,3.50
2023-04-23T09:14:42.908Z,5.32
2023-04-23T09:17:11.358Z,5.05
2023-04-23T09:19:40.719Z,7.80
2023-04-23T09:22:09.183Z,5.80
2023-04-23T09:24:36.221Z,3.60
2023-04-23T09:27:04.354Z,5.25
2023-04-23T09:29:31.635Z,6.13
2023-04-23T09:32:09.513Z,4.60
2023-04-23T09:34:37.739Z,5.57
2023-04-23T09:37:11.163Z,4.13
2023-04-23T09:39:40.046Z,7.38
2023-04-23T09:42:09.894Z,5.20
2023-04-23T09:44:37.051Z,3.55
2023-04-23T09:47:09.861Z,5.20
2023-04-23T09:49:49.637Z,5.45
2023-04-23T09:52:18.579Z,4.90
2023-04-23T09:54:46.829Z,4.50
2023-04-23T09:57:14.078Z,4.28
2023-04-23T09:59:48.876Z,5.07
2023-04-23T10:02:20.233Z,6.93
2023-04-23T10:05:00.645Z,3.88
2023-04-23T10:07:34.631Z,3.95
2023-04-23T10:10:01.729Z,5.30
2023-04-23T10:12:46.587Z,4.40
2023-04-23T10:15:15.796Z,5.65
2023-04-23T10:17:43.206Z,5.22
2023-04-23T10:20:12.211Z,3.78
2023-04-23T10:22:44.408Z,2.22
2023-04-23T10:25:12.566Z,4.35
2023-04-23T10:27:52.917Z,3.47
2023-04-23T10:30:22.437Z,4.13
2023-04-23T10:32:50.723Z,3.05
2023-04-23T10:35:18.378Z,5.13
2023-04-23T10:37:48.374Z,7.53
2023-04-23T10:40:34.053Z,4.05
2023-04-23T10:43:01.453Z,5.45
2023-04-23T10:45:32.953Z,2.35
2023-04-23T10:48:00.279Z,5.95
2023-04-23T10:50:30.538Z,6.72
2023-04-23T10:52:59.014Z,4.18
2023-04-23T10:55:29.049Z,4.93
2023-04-23T10:58:07.416Z,4.55
2023-04-23T11:00:46.263Z,4.15
2023-04-23T11:03:43.154Z,4.57
2023-04-23T11:06:40.114Z,3.15
2023-04-23T11:09:29.112Z,2.95
2023-04-23T11:11:58.111Z,4.35
2023-04-23T11:14:49.786Z,2.80
2023-04-23T11:17:19.196Z,4.05
2023-04-23T11:20:07.050Z,2.22
2023-04-23T11:22:39.082Z,3.50
2023-04-23T11:25:20.777Z,4.88
2023-04-23T11:27:50.970Z,4.22
2023-04-23T11:30:20.296Z,3.22
2023-04-23T11:32:52.542Z,6.07
2023-04-23T11:35:23.086Z,3.63
2023-04-23T11:37:50.310Z,3.53
2023-04-23T11:40:19.312Z,4.47
2023-04-23T11:42:51.762Z,6.60
2023-04-23T11:45:20.413Z,3.35
2023-04-23T11:47:50.971Z,3.75
2023-04-23T11:50:24.342Z,3.05
2023-04-23T11:52:52.752Z,3.75
2023-04-23T11:55:21.002Z,2.97
2023-04-23T11:57:52.714Z,2.67
2023-04-23T12:00:22.825Z,4.75
2023-04-23T12:03:01.750Z,4.25
2023-04-23T12:05:35.345Z,4.55
2023-04-23T12:08:20.517Z,4.07
2023-04-23T12:10:54.374Z,4.68
2023-04-23T12:13:36.274Z,5.70
2023-04-23T12:16:05.318Z,4.38
2023-04-23T12:18:42.332Z,2.70
2023-04-23T12:21:14.314Z,3.08
2023-04-23T12:23:45.291Z,3.38
2023-04-23T12:26:15.820Z,3.95
2023-04-23T12:29:01.830Z,1.95
2023-04-23T12:31:31.161Z,3.38
2023-04-23T12:34:12.761Z,5.57
2023-04-23T12:36:43.782Z,3.58
2023-04-23T12:39:27.859Z,4.35
2023-04-23T12:42:05.282Z,6.85
2023-04-23T12:44:36.298Z,3.42
2023-04-23T12:47:07.349Z,3.95
2023-04-23T12:49:37.072Z,3.03
2023-04-23T12:52:07.319Z,3.65
2023-04-23T12:54:37.677Z,3.83
2023-04-23T12:57:08.037Z,4.80
2023-04-23T12:59:35.916Z,3.38
2023-04-23T13:02:07.071Z,3.80
2023-04-23T13:04:36.834Z,4.80
2023-04-23T13:07:04.552Z,1.77
2023-04-23T13:09:31.962Z,4.75
2023-04-23T13:12:00.936Z,5.57
2023-04-23T13:14:28.552Z,2.95
2023-04-23T13:16:57.979Z,3.20
2023-04-23T13:19:25.981Z,2.20
2023-04-23T13:21:53.774Z,7.55
2023-04-23T13:24:20.981Z,3.53
2023-04-23T13:26:48.188Z,5.07
2023-04-23T13:29:16.214Z,4.35
2023-04-23T13:31:43.606Z,2.20
2023-04-23T13:34:10.977Z,4.35
2023-04-23T13:36:42.893Z,2.42
2023-04-23T13:39:14.425Z,5.55
2023-04-23T13:41:42.412Z,3.80
2023-04-23T13:44:10.170Z,4.05
2023-04-23T13:46:40.334Z,2.20
2023-04-23T13:49:08.987Z,3.58
2023-04-23T13:51:36.453Z,5.80
2023-04-23T13:54:04.041Z,5.97
2023-04-23T13:56:31.836Z,1.98
2023-04-23T14:01:34.745Z,3.78
2023-04-23T14:04:04.426Z,3.92
2023-04-23T14:06:32.215Z,2.75
2023-04-23T14:08:59.540Z,4.72
2023-04-23T14:11:27.352Z,3.30
2023-04-23T14:13:54.942Z,2.97
2023-04-23T14:16:22.314Z,2.13
2023-04-23T14:18:51.790Z,1.33
2023-04-23T14:21:19.155Z,2.75
2023-04-23T14:24:03.090Z,3.60
2023-04-23T14:29:39.847Z,3.65
2023-04-23T14:32:08.066Z,3.55
2023-04-23T14:34:36.045Z,2.95
2023-04-23T14:37:04.187Z,3.90
2023-04-23T14:39:32.172Z,2.95
2023-04-23T14:41:59.596Z,2.55
2023-04-23T14:44:27.087Z,5.53
2023-04-23T14:46:54.994Z,2.75
2023-04-23T14:49:24.965Z,3.38
2023-04-23T14:51:57.830Z,4.93
2023-04-23T14:54:25.467Z,3.17
2023-04-23T14:56:52.938Z,3.80
2023-04-23T14:59:22.008Z,2.63
2023-04-23T15:01:49.439Z,2.78
2023-04-23T15:04:17.130Z,4.78
2023-04-23T15:06:47.346Z,4.03
2023-04-23T15:09:14.682Z,3.33
2023-04-23T15:11:43.430Z,4.65
2023-04-23T15:14:32.656Z,2.00
2023-04-23T15:17:00.147Z,4.50
2023-04-23T15:19:27.663Z,3.50
2023-04-23T15:21:55.046Z,3.67
2023-04-23T15:24:22.105Z,4.20
2023-04-23T15:26:49.732Z,2.53
2023-04-23T15:29:16.799Z,4.32
2023-04-23T15:31:43.949Z,4.28
2023-04-23T15:34:12.235Z,2.70
2023-04-23T15:36:39.824Z,5.40
2023-04-23T15:39:07.731Z,3.75
2023-04-23T15:41:39.336Z,2.33
2023-04-23T15:44:14.077Z,4.28
2023-04-23T15:46:41.764Z,2.92
2023-04-23T15:49:09.012Z,3.92
2023-04-23T15:51:37.524Z,2.88
2023-04-23T15:54:08.243Z,4.35
2023-04-23T15:56:36.777Z,4.18
2023-04-23T15:59:04.252Z,4.53
2023-04-23T16:01:32.553Z,2.03
2023-04-23T16:04:09.728Z,2.28
2023-04-23T16:06:38.681Z,4.47
2023-04-23T16:09:08.882Z,4.30
2023-04-23T16:11:40.344Z,3.97
2023-04-23T16:14:09.628Z,1.75
2023-04-23T16:16:38.768Z,3.97
2023-04-23T16:19:06.478Z,3.20
2023-04-23T16:21:33.808Z,4.63
2023-04-23T16:24:01.453Z,3.35
2023-04-23T16:26:29.314Z,5.03
2023-04-23T16:29:16.481Z,2.00
2023-04-23T16:31:44.566Z,3.28
2023-04-23T16:34:11.810Z,4.00
2023-04-23T16:36:39.150Z,3.58
2023-04-23T16:39:06.457Z,4.18
2023-04-23T16:41:33.842Z,3.90
2023-04-23T16:44:01.245Z,3.28
2023-04-23T16:46:30.993Z,5.07
2023-04-23T16:48:58.758Z,2.58
2023-04-23T16:51:27.190Z,5.40
2023-04-23T16:53:54.494Z,3.60
2023-04-23T16:56:22.060Z,2.22
2023-04-23T16:58:49.883Z,2.70
2023-04-23T17:01:17.974Z,3.72
2023-04-23T17:03:48.398Z,4.97
2023-04-23T17:06:29.034Z,4.72
2023-04-23T17:08:58.939Z,3.25
2023-04-23T17:11:30.294Z,6.40
2023-04-23T17:13:59.671Z,10.40
2023-04-23T17:16:27.602Z,5.30
2023-04-23T17:18:56.023Z,4.10
2023-04-23T17:21:24.063Z,4.30
2023-04-23T17:23:51.624Z,11.43
2023-04-23T17:26:20.955Z,4.60
2023-04-23T17:28:48.266Z,5.88
2023-04-23T17:31:16.367Z,7.03
2023-04-23T17:33:45.406Z,4.75
2023-04-23T17:36:12.918Z,8.55
2023-04-23T17:38:39.927Z,4.55
2023-04-23T17:41:07.814Z,4.30
2023-04-23T17:43:35.161Z,4.32
2023-04-23T17:46:02.411Z,5.35
2023-04-23T17:48:30.290Z,5.68
2023-04-23T17:50:57.520Z,5.75
2023-04-23T17:53:25.054Z,6.78
2023-04-23T17:55:52.340Z,8.05
2023-04-23T17:58:21.526Z,4.60
2023-04-23T18:00:49.501Z,6.05
2023-04-23T18:03:18.732Z,5.80
2023-04-23T18:05:46.251Z,8.27
2023-04-23T18:08:16.395Z,7.32
2023-04-23T18:10:46.253Z,4.40
2023-04-23T18:13:14.282Z,6.78
2023-04-23T18:15:42.381Z,5.78
2023-04-23T18:18:09.921Z,5.30
2023-04-23T18:20:39.208Z,6.93
2023-04-23T18:23:06.954Z,5.25
2023-04-23T18:25:34.244Z,5.68
2023-04-23T18:28:01.415Z,9.68
2023-04-23T18:30:29.312Z,5.82
2023-04-23T18:33:38.812Z,4.03
2023-04-23T18:36:24.387Z,1.85
2023-04-23T18:38:51.764Z,2.92
2023-04-23T18:41:19.013Z,2.35
2023-04-23T18:43:46.444Z,1.00
2023-04-23T18:46:13.684Z,2.00
2023-04-23T18:48:54.284Z,1.10
2023-04-23T18:51:43.235Z,0.93
2023-04-23T18:54:14.912Z,1.77
2023-04-23T18:56:42.259Z,0.80
2023-04-23T18:59:11.561Z,1.77
2023-04-23T19:01:43.276Z,2.60
2023-04-23T19:04:10.612Z,1.70
2023-04-23T19:06:38.089Z,2.50
2023-04-23T19:09:05.313Z,0.70
2023-04-23T19:11:35.405Z,1.13
2023-04-23T19:14:02.635Z,0.57
2023-04-23T19:16:29.758Z,0.40
2023-04-23T19:18:57.007Z,1.95
2023-04-23T19:21:24.251Z,1.02
2023-04-23T19:23:52.302Z,0.85
2023-04-23T19:26:19.248Z,0.50
2023-04-23T19:28:46.249Z,3.35
2023-04-23T19:31:13.553Z,3.78
2023-04-23T19:33:42.720Z,0.73
2023-04-23T19:36:13.284Z,0.85
2023-04-23T19:38:40.601Z,1.05
2023-04-23T19:41:07.907Z,0.43
2023-04-23T19:43:35.387Z,0.63
2023-04-23T19:46:02.464Z,1.50
2023-04-23T19:48:29.664Z,0.88
2023-04-23T19:50:57.260Z,0.65
2023-04-23T19:53:25.755Z,0.40
2023-04-23T19:55:53.064Z,1.13
2023-04-23T19:58:20.166Z,0.55
2023-04-23T20:00:47.757Z,0.95
2023-04-23T20:03:15.116Z,1.00
2023-04-23T20:05:44.706Z,2.00
2023-04-23T20:08:15.266Z,2.45
2023-04-23T20:10:43.369Z,1.55
2023-04-23T20:13:10.410Z,1.05
2023-04-23T20:15:37.682Z,1.90
2023-04-23T20:18:05.382Z,1.10
2023-04-23T20:20:33.935Z,2.20
2023-04-23T20:23:00.974Z,1.45
2023-04-23T20:25:27.981Z,1.10
2023-04-23T20:27:57.106Z,0.80
2023-04-23T20:30:24.348Z,1.02
2023-04-23T20:32:51.686Z,1.40
2023-04-23T20:35:18.709Z,1.10
2023-04-23T20:37:45.965Z,1.53
2023-04-23T20:40:14.437Z,1.08
2023-04-23T20:42:51.549Z,2.90
2023-04-23T20:45:20.714Z,1.00
2023-04-23T20:47:48.911Z,1.20
2023-04-23T20:50:16.186Z,1.57
2023-04-23T20:52:44.746Z,1.10
2023-04-23T20:55:11.803Z,2.03
2023-04-23T20:57:38.899Z,1.33
2023-04-23T21:00:11.666Z,1.55
2023-04-23T21:02:39.491Z,1.10
2023-04-23T21:05:07.954Z,1.35
2023-04-23T21:07:36.757Z,2.05
2023-04-23T21:10:07.876Z,2.30
2023-04-23T21:12:35.969Z,2.30
2023-04-23T21:15:03.589Z,3.17
2023-04-23T21:17:30.706Z,2.92
2023-04-23T21:19:58.062Z,2.70
2023-04-23T21:22:25.260Z,2.40
2023-04-23T21:24:52.478Z,2.78
2023-04-23T21:27:21.829Z,2.50
2023-04-23T21:29:49.599Z,3.17
2023-04-23T21:32:20.962Z,2.22
2023-04-23T21:34:48.157Z,2.10
2023-04-23T21:37:15.349Z,2.10
2023-04-23T21:39:42.842Z,3.97
2023-04-23T21:42:10.091Z,1.80
2023-04-23T21:44:37.442Z,1.65
2023-04-23T21:47:04.753Z,1.38
2023-04-23T21:49:32.875Z,1.58
2023-04-23T21:52:01.562Z,1.80
2023-04-23T21:54:29.199Z,2.60
2023-04-23T21:56:56.518Z,1.70
2023-04-23T21:59:24.819Z,1.90
2023-04-23T22:01:51.865Z,3.38
2023-04-23T22:04:19.257Z,2.30
2023-04-23T22:06:46.572Z,1.50
2023-04-23T22:09:14.135Z,1.80
2023-04-23T22:11:48.920Z,1.70
2023-04-23T22:14:22.599Z,2.05
2023-04-23T22:16:51.175Z,2.13
2023-04-23T22:19:21.085Z,1.52
2023-04-23T22:21:48.088Z,1.20
2023-04-23T22:24:15.212Z,1.40
2023-04-23T22:26:42.479Z,1.30
2023-04-23T22:29:09.674Z,1.30
2023-04-23T22:31:36.805Z,2.08
2023-04-23T22:34:03.930Z,1.40
2023-04-23T22:36:31.936Z,2.45
2023-04-23T22:38:59.036Z,1.20
2023-04-23T22:41:26.151Z,2.05
2023-04-23T22:43:54.195Z,2.33
2023-04-23T22:46:21.297Z,1.08
2023-04-23T22:48:48.821Z,1.45
2023-04-23T22:51:16.005Z,0.93
2023-04-23T22:53:43.014Z,1.10
2023-04-23T22:56:10.201Z,2.58
2023-04-23T22:58:37.641Z,1.33
2023-04-23T23:01:04.905Z,0.70
2023-04-23T23:03:32.658Z,0.95
2023-04-23T23:05:59.750Z,0.75
2023-04-23T23:08:26.906Z,1.27
2023-04-23T23:10:54.356Z,2.20
2023-04-23T23:13:21.421Z,2.22
2023-04-23T23:15:48.575Z,3.03
2023-04-23T23:18:15.588Z,3.40
2023-04-23T23:20:44.670Z,7.07
2023-04-23T23:23:11.864Z,6.07
2023-04-23T23:25:38.920Z,6.40
2023-04-23T23:28:05.926Z,10.43
2023-04-23T23:30:32.976Z,9.88
2023-04-23T23:33:00.603Z,10.40
2023-04-23T23:35:27.610Z,9.50
2023-04-23T23:37:54.679Z,11.18
2023-04-23T23:40:21.638Z,11.87
2023-04-23T23:42:50.159Z,10.13
2023-04-23T23:45:17.234Z,11.48
2023-04-23T23:47:44.561Z,10.67
2023-04-23T23:50:12.100Z,15.57
2023-04-23T23:52:39.297Z,11.27
2023-04-23T23:55:07.194Z,11.30
2023-04-23T23:57:34.139Z,12.55
